Terminal Aerodrome Forecast
Issued by NWS Billings, MT

Home | Current Version | Previous Version | Graphics & Text | Print | Product List | Glossary On
Versions: 1 2 3 4 5 6 7 8 9 10 11 12 13 14 15 16 17 18 19 20 21 22 23 24 25 26 27 28 29 30 31 32
398
FTUS45 KBYZ 202329
TAFMLS
TAF
KMLS 202329Z 2100/2124 26010KT P6SM VCSH SCT050 BKN100
     FM210200 VRB05KT P6SM VCFG FEW050 SCT120
     FM211800 26004KT P6SM FEW250=

USA.gov is the U.S. government's official web portal to all federal, state and local government web resources and services.